createdAt,value
2019-03-21T00:01:59.825Z,2.81
2019-03-21T00:04:26.261Z,2.81
2019-03-21T00:06:52.463Z,2.80
2019-03-21T00:09:18.703Z,2.77
2019-03-21T00:12:06.188Z,2.79
2019-03-21T00:14:54.259Z,2.77
2019-03-21T00:17:30.065Z,2.74
2019-03-21T00:19:56.207Z,2.71
2019-03-21T00:22:22.413Z,2.69
2019-03-21T00:24:48.526Z,2.71
2019-03-21T00:27:14.753Z,2.72
2019-03-21T00:29:40.961Z,2.73
2019-03-21T00:32:08.383Z,2.76
2019-03-21T00:34:34.567Z,2.80
2019-03-21T00:37:00.737Z,2.82
2019-03-21T00:39:32.720Z,2.80
2019-03-21T00:41:55.993Z,2.82
2019-03-21T00:44:22.189Z,2.87
2019-03-21T00:46:48.402Z,2.88
2019-03-21T00:49:14.803Z,2.88
2019-03-21T00:51:41.050Z,2.86
2019-03-21T00:54:07.170Z,2.85
2019-03-21T00:56:33.508Z,2.87
2019-03-21T00:58:59.621Z,2.87
2019-03-21T01:01:26.043Z,2.87
2019-03-21T01:03:53.259Z,2.91
2019-03-21T01:06:19.446Z,2.95
2019-03-21T01:08:45.600Z,2.95
2019-03-21T01:11:11.871Z,2.96
2019-03-21T01:13:39.280Z,2.95
2019-03-21T01:16:05.657Z,2.95
2019-03-21T01:18:34.398Z,2.97
2019-03-21T01:21:00.741Z,2.98
2019-03-21T01:23:27.940Z,2.97
2019-03-21T01:26:00.662Z,2.95
2019-03-21T01:28:26.853Z,2.94
2019-03-21T01:30:53.079Z,2.90
2019-03-21T01:33:19.187Z,2.95
2019-03-21T01:35:45.435Z,2.99
2019-03-21T01:38:11.736Z,2.98
2019-03-21T01:40:57.919Z,2.95
2019-03-21T01:43:24.095Z,2.90
2019-03-21T01:45:50.266Z,2.81
2019-03-21T01:48:16.489Z,2.76
2019-03-21T01:50:42.603Z,2.71
2019-03-21T01:53:08.802Z,2.68
2019-03-21T01:55:35.060Z,2.68
2019-03-21T01:58:01.275Z,2.64
2019-03-21T02:00:30.880Z,2.66
2019-03-21T02:02:57.477Z,2.65
2019-03-21T02:05:23.706Z,2.69
2019-03-21T02:07:49.975Z,2.68
2019-03-21T02:10:17.034Z,2.71
2019-03-21T02:12:43.228Z,2.76
2019-03-21T02:15:13.611Z,2.78
2019-03-21T02:17:39.915Z,2.78
2019-03-21T02:20:10.937Z,2.78
2019-03-21T02:22:37.050Z,2.82
2019-03-21T02:25:07.197Z,2.80
2019-03-21T02:27:33.335Z,2.86
2019-03-21T02:29:59.553Z,2.94
2019-03-21T02:32:26.001Z,2.95
2019-03-21T02:34:52.222Z,2.96
2019-03-21T02:37:18.481Z,2.93
2019-03-21T02:39:58.150Z,2.90
2019-03-21T02:42:12.870Z,2.91
2019-03-21T02:44:39.141Z,2.95
2019-03-21T02:47:05.413Z,2.96
2019-03-21T02:49:31.594Z,2.93
2019-03-21T02:51:57.798Z,2.90
2019-03-21T02:54:25.029Z,2.85
2019-03-21T02:56:51.845Z,2.79
2019-03-21T02:59:18.009Z,2.79
2019-03-21T03:01:44.264Z,2.80
2019-03-21T03:04:10.532Z,2.80
2019-03-21T03:06:36.897Z,2.78
2019-03-21T03:09:05.721Z,2.75
2019-03-21T03:11:32.033Z,2.69
2019-03-21T03:13:58.243Z,2.61
2019-03-21T03:16:24.432Z,2.49
2019-03-21T03:18:50.660Z,2.37
2019-03-21T03:21:16.877Z,2.29
2019-03-21T03:23:42.992Z,2.22
2019-03-21T03:26:09.247Z,2.18
2019-03-21T03:28:44.427Z,2.18
2019-03-21T03:31:10.657Z,2.17
2019-03-21T03:33:36.756Z,2.20
2019-03-21T03:36:03.164Z,2.21
2019-03-21T03:38:29.283Z,2.21
2019-03-21T03:40:59.319Z,2.24
2019-03-21T03:43:25.661Z,2.26
2019-03-21T03:45:51.906Z,2.29
2019-03-21T03:48:19.976Z,2.34
2019-03-21T03:50:46.356Z,2.40
2019-03-21T03:53:12.621Z,2.43
2019-03-21T03:55:39.032Z,2.48
2019-03-21T03:58:09.174Z,2.52
2019-03-21T04:00:35.833Z,2.55
2019-03-21T04:03:02.137Z,2.56
2019-03-21T04:05:28.829Z,2.55
2019-03-21T04:07:55.506Z,2.53
2019-03-21T04:10:25.784Z,2.49
2019-03-21T04:12:52.538Z,2.45
2019-03-21T04:15:19.524Z,2.39
2019-03-21T04:17:46.190Z,2.39
2019-03-21T04:20:15.795Z,2.36
2019-03-21T04:22:42.716Z,2.35
2019-03-21T04:25:12.607Z,2.34
2019-03-21T04:27:39.559Z,2.35
2019-03-21T04:30:09.910Z,2.35
2019-03-21T04:32:36.733Z,2.35
2019-03-21T04:35:09.431Z,2.35
2019-03-21T04:37:36.082Z,2.37
2019-03-21T04:40:06.302Z,2.43
2019-03-21T04:42:33.174Z,2.45
2019-03-21T04:44:59.969Z,2.43
2019-03-21T04:47:26.849Z,2.46
2019-03-21T04:49:53.653Z,2.41
2019-03-21T04:52:20.434Z,2.41
2019-03-21T04:54:47.159Z,2.44
2019-03-21T04:57:13.944Z,2.50
2019-03-21T04:59:40.698Z,2.55
2019-03-21T05:02:07.486Z,2.56
2019-03-21T05:04:34.235Z,2.60
2019-03-21T05:07:01.127Z,2.62
2019-03-21T05:09:27.802Z,2.61
2019-03-21T05:11:54.631Z,2.61
2019-03-21T05:14:21.320Z,2.64
2019-03-21T05:16:48.078Z,2.65
2019-03-21T05:19:14.865Z,2.64
2019-03-21T05:21:41.929Z,2.65
2019-03-21T05:24:09.576Z,2.69
2019-03-21T05:26:36.609Z,2.68
2019-03-21T05:29:02.896Z,2.74
2019-03-21T05:31:32.726Z,2.73
2019-03-21T05:33:58.843Z,2.75
2019-03-21T05:36:25.071Z,2.81
2019-03-21T05:38:51.219Z,2.81
2019-03-21T05:41:17.553Z,2.85
2019-03-21T05:43:53.489Z,2.87
2019-03-21T05:46:26.427Z,2.88
2019-03-21T05:48:48.760Z,2.88
2019-03-21T05:51:14.990Z,2.88
2019-03-21T05:53:41.092Z,2.92
2019-03-21T05:56:07.313Z,2.96
2019-03-21T05:58:33.468Z,2.98
2019-03-21T06:01:03.000Z,3.06
2019-03-21T06:03:32.712Z,3.05
2019-03-21T06:06:11.057Z,3.11
2019-03-21T06:08:38.823Z,3.22
2019-03-21T06:11:05.437Z,3.35
2019-03-21T06:13:31.805Z,3.38
2019-03-21T06:16:09.454Z,3.42
2019-03-21T06:19:06.832Z,3.42
2019-03-21T06:21:36.795Z,3.44
2019-03-21T06:24:30.849Z,3.47
2019-03-21T06:27:14.759Z,3.49
2019-03-21T06:29:41.138Z,3.61
2019-03-21T06:32:07.517Z,3.72
2019-03-21T06:34:33.644Z,3.79
2019-03-21T06:36:59.900Z,3.90
2019-03-21T06:39:26.208Z,3.95
2019-03-21T06:41:52.419Z,4.02
2019-03-21T06:44:18.575Z,4.10
2019-03-21T06:46:49.282Z,4.13
2019-03-21T06:49:12.831Z,4.15
2019-03-21T06:51:39.064Z,4.17
2019-03-21T06:54:05.164Z,4.27
2019-03-21T06:56:31.387Z,4.41
2019-03-21T06:58:57.554Z,4.50
2019-03-21T07:01:23.787Z,4.58
2019-03-21T07:03:49.911Z,4.63
2019-03-21T07:06:16.141Z,4.66
2019-03-21T07:08:42.270Z,4.63
2019-03-21T07:11:08.625Z,4.59
2019-03-21T07:13:34.805Z,4.58
2019-03-21T07:16:01.184Z,4.57
2019-03-21T07:18:27.463Z,4.65
2019-03-21T07:20:53.833Z,4.82
2019-03-21T07:23:20.251Z,5.04
2019-03-21T07:25:46.455Z,5.19
2019-03-21T07:28:12.611Z,5.35
2019-03-21T07:30:38.777Z,5.44
2019-03-21T07:33:04.943Z,5.43
2019-03-21T07:35:31.194Z,5.51
2019-03-21T07:37:57.354Z,5.51
2019-03-21T07:40:23.535Z,5.53
2019-03-21T07:42:49.704Z,5.55
2019-03-21T07:45:15.888Z,5.59
2019-03-21T07:47:42.258Z,5.67
2019-03-21T07:50:12.781Z,5.76
2019-03-21T07:52:39.000Z,5.87
2019-03-21T07:55:07.558Z,6.00
2019-03-21T07:57:33.768Z,6.12
2019-03-21T07:59:59.997Z,6.20
2019-03-21T08:02:26.340Z,6.29
2019-03-21T08:04:52.573Z,6.40
2019-03-21T08:07:18.677Z,6.50
2019-03-21T08:09:44.906Z,6.58
2019-03-21T08:12:11.011Z,6.63
2019-03-21T08:14:37.236Z,6.71
2019-03-21T08:17:03.349Z,6.81
2019-03-21T08:19:29.569Z,6.91
2019-03-21T08:21:55.854Z,7.02
2019-03-21T08:24:22.237Z,7.09
2019-03-21T08:26:48.532Z,7.17
2019-03-21T08:29:14.833Z,7.28
2019-03-21T08:31:40.956Z,7.42
2019-03-21T08:34:07.188Z,7.52
2019-03-21T08:36:33.322Z,7.60
2019-03-21T08:39:00.635Z,7.73
2019-03-21T08:41:26.806Z,7.84
2019-03-21T08:43:53.054Z,7.93
2019-03-21T08:46:19.310Z,8.02
2019-03-21T08:48:45.537Z,8.04
2019-03-21T08:51:11.698Z,8.15
2019-03-21T08:53:37.984Z,8.29
2019-03-21T08:56:04.366Z,8.45
2019-03-21T08:58:30.652Z,8.59
2019-03-21T09:00:56.907Z,8.71
2019-03-21T09:03:23.218Z,8.84
2019-03-21T09:05:49.505Z,9.00
2019-03-21T09:08:15.789Z,9.19
2019-03-21T09:10:42.176Z,9.38
2019-03-21T09:13:09.465Z,9.55
2019-03-21T09:15:36.738Z,9.78
2019-03-21T09:18:02.935Z,10.00
2019-03-21T09:20:29.096Z,10.20
2019-03-21T09:22:55.321Z,10.42
2019-03-21T09:25:21.424Z,10.62
2019-03-21T09:27:47.631Z,10.91
2019-03-21T09:30:14.011Z,11.21
2019-03-21T09:32:40.648Z,11.44
2019-03-21T09:35:08.071Z,11.73
2019-03-21T09:37:34.230Z,12.01
2019-03-21T09:40:00.503Z,12.38
2019-03-21T09:42:26.835Z,12.76
2019-03-21T09:44:53.064Z,13.11
2019-03-21T09:47:19.166Z,13.33
2019-03-21T09:49:45.426Z,13.53
2019-03-21T09:52:11.532Z,13.83
2019-03-21T09:54:37.757Z,14.20
2019-03-21T09:57:04.005Z,14.47
2019-03-21T09:59:30.369Z,14.69
2019-03-21T10:01:56.487Z,14.82
2019-03-21T10:04:22.787Z,15.09
2019-03-21T10:06:49.032Z,15.45
2019-03-21T10:09:15.273Z,15.77
2019-03-21T10:11:41.538Z,16.07
2019-03-21T10:14:07.836Z,16.26
2019-03-21T10:16:34.249Z,16.55
2019-03-21T10:19:00.359Z,16.81
2019-03-21T10:21:26.887Z,17.08
2019-03-21T10:23:53.104Z,17.20
2019-03-21T10:26:19.537Z,17.29
2019-03-21T10:28:45.663Z,17.62
2019-03-21T10:31:11.874Z,17.99
2019-03-21T10:33:38.050Z,18.32
2019-03-21T10:36:04.283Z,18.69
2019-03-21T10:38:30.488Z,18.87
2019-03-21T10:40:56.897Z,19.03
2019-03-21T10:43:23.135Z,19.55
2019-03-21T10:45:49.368Z,20.18
2019-03-21T10:48:15.568Z,20.68
2019-03-21T10:50:41.661Z,21.01
2019-03-21T10:53:08.573Z,21.84
2019-03-21T10:55:35.015Z,22.67
2019-03-21T10:58:01.454Z,23.36
2019-03-21T11:00:27.697Z,23.90
2019-03-21T11:02:55.104Z,24.05
2019-03-21T11:05:23.191Z,24.50
2019-03-21T11:07:49.456Z,25.24
2019-03-21T11:10:15.766Z,25.52
2019-03-21T11:12:42.016Z,26.19
2019-03-21T11:15:08.678Z,26.43
2019-03-21T11:17:35.218Z,27.09
2019-03-21T11:20:01.591Z,27.61
2019-03-21T11:22:27.883Z,27.99
2019-03-21T11:24:54.262Z,28.02
2019-03-21T11:27:20.553Z,27.55
2019-03-21T11:29:46.788Z,27.53
2019-03-21T11:32:12.916Z,27.59
2019-03-21T11:34:39.139Z,27.90
2019-03-21T11:37:05.239Z,28.34
2019-03-21T11:39:31.468Z,28.55
2019-03-21T11:41:57.675Z,29.00
2019-03-21T11:44:24.029Z,29.56
2019-03-21T11:46:50.202Z,29.88
2019-03-21T11:49:16.562Z,29.95
2019-03-21T11:51:42.727Z,29.96
2019-03-21T11:54:08.981Z,30.27
2019-03-21T11:56:35.101Z,31.01
2019-03-21T11:59:01.338Z,31.49
2019-03-21T12:01:27.454Z,31.86
2019-03-21T12:03:53.692Z,32.00
2019-03-21T12:06:19.816Z,31.90
2019-03-21T12:08:46.048Z,32.27
2019-03-21T12:11:12.173Z,32.65
2019-03-21T12:13:38.386Z,32.38
2019-03-21T12:16:05.658Z,32.17
2019-03-21T12:18:31.916Z,31.88
2019-03-21T12:20:58.125Z,31.72
2019-03-21T12:23:24.387Z,32.29
2019-03-21T12:25:50.569Z,32.90
2019-03-21T12:28:16.834Z,33.37
2019-03-21T12:30:43.124Z,33.79
2019-03-21T12:33:09.488Z,34.03
2019-03-21T12:35:35.751Z,33.68
2019-03-21T12:38:04.225Z,33.35
2019-03-21T12:40:30.447Z,33.60
2019-03-21T12:42:56.574Z,33.74
2019-03-21T12:45:22.817Z,33.97
2019-03-21T12:47:48.986Z,34.44
2019-03-21T12:50:15.132Z,34.56
2019-03-21T12:52:41.813Z,34.51
2019-03-21T12:55:08.196Z,34.48
2019-03-21T12:57:34.528Z,34.37
2019-03-21T13:00:00.789Z,34.72
2019-03-21T13:02:32.275Z,34.96
2019-03-21T13:04:55.371Z,35.01
2019-03-21T13:07:21.958Z,34.54
2019-03-21T13:09:48.348Z,34.54
2019-03-21T13:12:14.571Z,34.58
2019-03-21T13:14:40.742Z,35.17
2019-03-21T13:17:07.028Z,35.64
2019-03-21T13:19:33.326Z,36.03
2019-03-21T13:21:59.503Z,36.20
2019-03-21T13:24:25.873Z,35.91
2019-03-21T13:26:52.320Z,35.96
2019-03-21T13:29:18.892Z,36.17
2019-03-21T13:31:45.112Z,36.48
2019-03-21T13:34:11.221Z,36.70
2019-03-21T13:36:37.432Z,36.72
2019-03-21T13:39:05.534Z,36.57
2019-03-21T13:41:31.851Z,36.27
2019-03-21T13:43:58.062Z,36.14
2019-03-21T13:46:24.290Z,36.51
2019-03-21T13:48:51.385Z,35.62
2019-03-21T13:51:18.629Z,35.69
2019-03-21T13:53:44.791Z,36.28
2019-03-21T13:56:11.056Z,36.14
2019-03-21T13:58:37.194Z,35.60
2019-03-21T14:01:03.534Z,35.49
2019-03-21T14:03:29.686Z,35.11
2019-03-21T14:05:55.868Z,34.23
2019-03-21T14:08:22.044Z,33.40
2019-03-21T14:10:48.205Z,32.52
2019-03-21T14:13:14.530Z,32.17
2019-03-21T14:15:40.824Z,32.38
2019-03-21T14:18:07.014Z,32.35
2019-03-21T14:20:34.255Z,32.21
2019-03-21T14:23:00.469Z,31.83
2019-03-21T14:25:27.021Z,31.56
2019-03-21T14:27:53.250Z,30.48
2019-03-21T14:30:19.372Z,29.21
2019-03-21T14:32:45.651Z,28.99
2019-03-21T14:35:12.252Z,29.47
2019-03-21T14:37:38.502Z,29.86
2019-03-21T14:40:07.275Z,29.79
2019-03-21T14:42:33.609Z,29.57
2019-03-21T14:44:59.888Z,29.29
2019-03-21T14:47:35.848Z,29.07
2019-03-21T14:49:54.385Z,29.38
2019-03-21T14:52:20.512Z,29.45
2019-03-21T14:54:46.772Z,29.19
2019-03-21T14:57:12.869Z,28.74
2019-03-21T14:59:39.200Z,28.69
2019-03-21T15:02:05.484Z,29.00
2019-03-21T15:04:32.241Z,29.26
2019-03-21T15:06:58.494Z,28.49
2019-03-21T15:09:24.832Z,27.77
2019-03-21T15:11:51.065Z,27.20
2019-03-21T15:14:18.177Z,26.40
2019-03-21T15:16:44.699Z,25.72
2019-03-21T15:19:10.919Z,25.01
2019-03-21T15:21:37.300Z,24.81
2019-03-21T15:24:03.587Z,24.97
2019-03-21T15:26:29.745Z,25.01
2019-03-21T15:28:55.986Z,24.94
2019-03-21T15:31:22.708Z,24.67
2019-03-21T15:33:48.975Z,24.16
2019-03-21T15:36:15.163Z,23.51
2019-03-21T15:38:41.390Z,22.95
2019-03-21T15:41:07.531Z,22.52
2019-03-21T15:43:33.745Z,22.10
2019-03-21T15:45:59.958Z,21.74
2019-03-21T15:48:26.384Z,21.41
2019-03-21T15:51:03.887Z,21.06
2019-03-21T15:53:21.140Z,20.76
2019-03-21T15:55:48.069Z,20.48
2019-03-21T15:58:15.021Z,20.17
2019-03-21T16:00:42.477Z,19.89
2019-03-21T16:03:10.683Z,19.61
2019-03-21T16:05:37.264Z,19.36
2019-03-21T16:08:04.636Z,19.16
2019-03-21T16:10:30.884Z,18.93
2019-03-21T16:12:57.613Z,18.70
2019-03-21T16:15:24.520Z,18.55
2019-03-21T16:17:51.216Z,18.36
2019-03-21T16:20:18.075Z,18.18
2019-03-21T16:22:44.807Z,18.03
2019-03-21T16:25:11.773Z,17.89
2019-03-21T16:27:38.145Z,17.73
2019-03-21T16:30:10.317Z,17.59
2019-03-21T16:32:36.572Z,17.48
2019-03-21T16:35:05.145Z,17.31
2019-03-21T16:37:31.334Z,17.22
2019-03-21T16:39:57.676Z,17.11
2019-03-21T16:42:23.998Z,16.99
2019-03-21T16:44:50.278Z,16.86
2019-03-21T16:47:16.532Z,16.73
2019-03-21T16:49:42.794Z,16.59
2019-03-21T16:52:09.146Z,16.47
2019-03-21T16:54:35.566Z,16.32
2019-03-21T16:57:01.851Z,16.19
2019-03-21T16:59:29.344Z,16.04
2019-03-21T17:01:55.702Z,15.91
2019-03-21T17:04:21.804Z,15.77
2019-03-21T17:06:48.035Z,15.61
2019-03-21T17:09:14.216Z,15.43
2019-03-21T17:11:40.498Z,15.27
2019-03-21T17:14:07.876Z,15.15
2019-03-21T17:16:34.129Z,14.99
2019-03-21T17:19:00.271Z,14.86
2019-03-21T17:21:26.712Z,14.73
2019-03-21T17:23:52.886Z,14.59
2019-03-21T17:26:19.093Z,14.46
2019-03-21T17:28:45.319Z,14.27
2019-03-21T17:31:11.750Z,14.07
2019-03-21T17:33:37.982Z,13.92
2019-03-21T17:36:04.194Z,13.78
2019-03-21T17:38:30.419Z,13.60
2019-03-21T17:40:56.533Z,13.46
2019-03-21T17:43:22.737Z,13.32
2019-03-21T17:45:48.889Z,13.22
2019-03-21T17:48:15.131Z,13.10
2019-03-21T17:50:41.307Z,13.01
2019-03-21T17:53:07.538Z,12.86
2019-03-21T17:55:33.653Z,12.61
2019-03-21T17:58:00.071Z,12.47
2019-03-21T18:00:28.307Z,12.38
2019-03-21T18:02:54.929Z,12.28
2019-03-21T18:05:21.137Z,12.19
2019-03-21T18:07:48.454Z,12.05
2019-03-21T18:10:29.759Z,11.90
2019-03-21T18:12:56.409Z,11.78
2019-03-21T18:15:23.454Z,11.57
2019-03-21T18:17:49.637Z,11.46
2019-03-21T18:20:15.817Z,11.37
2019-03-21T18:22:42.059Z,11.27
2019-03-21T18:25:08.461Z,11.09
2019-03-21T18:27:34.641Z,10.95
2019-03-21T18:30:00.775Z,10.81
2019-03-21T18:32:27.154Z,10.74
2019-03-21T18:34:53.305Z,10.63
2019-03-21T18:37:19.498Z,10.58
2019-03-21T18:39:45.664Z,10.52
2019-03-21T18:42:11.871Z,10.41
2019-03-21T18:44:38.156Z,10.34
2019-03-21T18:47:06.272Z,10.26
2019-03-21T18:49:32.425Z,10.20
2019-03-21T18:51:58.677Z,10.15
2019-03-21T18:54:26.448Z,10.05
2019-03-21T18:56:52.777Z,9.95
2019-03-21T18:59:19.738Z,9.86
2019-03-21T19:01:57.943Z,9.77
2019-03-21T19:04:14.836Z,9.67
2019-03-21T19:06:41.303Z,9.62
2019-03-21T19:09:07.589Z,9.57
2019-03-21T19:11:33.860Z,9.46
2019-03-21T19:14:00.048Z,9.42
2019-03-21T19:16:26.409Z,9.35
2019-03-21T19:18:52.588Z,9.28
2019-03-21T19:21:18.758Z,9.25
2019-03-21T19:23:45.082Z,9.18
2019-03-21T19:26:11.198Z,9.17
2019-03-21T19:28:37.433Z,9.19
2019-03-21T19:31:03.741Z,9.20
2019-03-21T19:33:29.988Z,9.12
2019-03-21T19:35:56.104Z,9.06
2019-03-21T19:38:23.846Z,9.00
2019-03-21T19:40:50.189Z,8.95
2019-03-21T19:43:16.404Z,8.87
2019-03-21T19:45:42.517Z,8.84
2019-03-21T19:48:08.867Z,8.81
2019-03-21T19:50:34.976Z,8.79
2019-03-21T19:53:01.201Z,8.80
2019-03-21T19:55:31.123Z,8.78
2019-03-21T19:57:55.468Z,8.75
2019-03-21T20:00:22.471Z,8.72
2019-03-21T20:02:49.151Z,8.71
2019-03-21T20:05:15.805Z,8.68
2019-03-21T20:07:42.207Z,8.63
2019-03-21T20:10:10.978Z,8.57
2019-03-21T20:12:37.292Z,8.49
2019-03-21T20:15:06.520Z,8.44
2019-03-21T20:17:32.838Z,8.38
2019-03-21T20:19:59.005Z,8.34
2019-03-21T20:22:25.339Z,8.29
2019-03-21T20:24:51.551Z,8.26
2019-03-21T20:27:17.870Z,8.25
2019-03-21T20:29:44.015Z,8.19
2019-03-21T20:32:20.093Z,8.15
2019-03-21T20:34:39.589Z,8.10
2019-03-21T20:37:05.827Z,8.03
2019-03-21T20:39:31.948Z,7.98
2019-03-21T20:41:58.175Z,7.97
2019-03-21T20:44:24.302Z,7.93
2019-03-21T20:46:50.621Z,7.87
2019-03-21T20:49:16.797Z,7.86
2019-03-21T20:51:43.042Z,7.84
2019-03-21T20:54:09.260Z,7.83
2019-03-21T20:56:35.482Z,7.80
2019-03-21T20:59:01.627Z,7.78
2019-03-21T21:01:28.091Z,7.77
2019-03-21T21:03:54.270Z,7.75
2019-03-21T21:06:20.692Z,7.75
2019-03-21T21:08:47.116Z,7.72
2019-03-21T21:11:13.321Z,7.68
2019-03-21T21:13:39.474Z,7.62
2019-03-21T21:16:05.938Z,7.61
2019-03-21T21:18:32.240Z,7.60
2019-03-21T21:20:59.690Z,7.59
2019-03-21T21:23:25.943Z,7.56
2019-03-21T21:25:52.519Z,7.52
2019-03-21T21:28:18.765Z,7.47
2019-03-21T21:30:44.990Z,7.45
2019-03-21T21:33:11.333Z,7.42
2019-03-21T21:35:37.652Z,7.38
2019-03-21T21:38:04.633Z,7.32
2019-03-21T21:40:33.225Z,7.29
2019-03-21T21:43:01.388Z,7.25
2019-03-21T21:45:27.646Z,7.21
2019-03-21T21:47:53.893Z,7.13
2019-03-21T21:50:20.131Z,7.11
2019-03-21T21:52:46.369Z,7.10
2019-03-21T21:55:13.144Z,7.15
2019-03-21T21:57:39.457Z,7.17
2019-03-21T22:00:09.153Z,7.17
2019-03-21T22:02:35.355Z,7.16
2019-03-21T22:05:05.038Z,7.12
2019-03-21T22:07:31.422Z,7.09
2019-03-21T22:09:57.656Z,7.05
2019-03-21T22:12:23.829Z,7.03
2019-03-21T22:14:50.111Z,6.99
2019-03-21T22:17:16.452Z,6.93
2019-03-21T22:19:42.573Z,6.86
2019-03-21T22:22:08.782Z,6.81
2019-03-21T22:24:34.884Z,6.79
2019-03-21T22:27:01.101Z,6.78
2019-03-21T22:29:27.383Z,6.79
2019-03-21T22:31:53.608Z,6.76
2019-03-21T22:34:19.772Z,6.72
2019-03-21T22:36:49.498Z,6.67
2019-03-21T22:39:14.145Z,6.65
2019-03-21T22:41:40.465Z,6.64
2019-03-21T22:44:06.574Z,6.62
2019-03-21T22:46:32.802Z,6.59
2019-03-21T22:48:59.055Z,6.61
2019-03-21T22:51:25.342Z,6.58
2019-03-21T22:53:51.568Z,6.57
2019-03-21T22:56:17.697Z,6.57
2019-03-21T22:58:43.946Z,6.57
2019-03-21T23:01:10.102Z,6.55
2019-03-21T23:03:36.373Z,6.54
2019-03-21T23:06:02.719Z,6.51
2019-03-21T23:08:28.930Z,6.47
2019-03-21T23:10:55.163Z,6.44
2019-03-21T23:13:21.364Z,6.42
2019-03-21T23:15:47.639Z,6.38
2019-03-21T23:18:13.904Z,6.37
2019-03-21T23:20:40.004Z,6.34
2019-03-21T23:23:06.236Z,6.31
2019-03-21T23:25:32.429Z,6.29
2019-03-21T23:27:58.924Z,6.25
2019-03-21T23:30:25.298Z,6.23
2019-03-21T23:32:51.619Z,6.22
2019-03-21T23:35:17.759Z,6.20
2019-03-21T23:37:43.993Z,6.20
2019-03-21T23:40:13.415Z,6.13
2019-03-21T23:42:39.580Z,6.12
2019-03-21T23:45:07.343Z,6.08
2019-03-21T23:47:33.671Z,6.07
2019-03-21T23:50:01.238Z,6.09
2019-03-21T23:52:27.643Z,6.08
2019-03-21T23:54:53.744Z,6.08
2019-03-21T23:57:19.978Z,6.09
2019-03-21T23:59:46.163Z,6.10
